createdAt,value
2023-01-26T00:01:23.459Z,4.40
2023-01-26T00:03:53.119Z,4.50
2023-01-26T00:06:22.023Z,4.50
2023-01-26T00:08:51.085Z,4.40
2023-01-26T00:11:20.324Z,4.40
2023-01-26T00:13:50.653Z,4.40
2023-01-26T00:16:18.862Z,4.40
2023-01-26T00:18:47.256Z,4.40
2023-01-26T00:21:18.290Z,4.40
2023-01-26T00:23:46.533Z,4.50
2023-01-26T00:26:18.031Z,4.40
2023-01-26T00:28:46.162Z,4.40
2023-01-26T00:31:16.056Z,4.30
2023-01-26T00:33:44.329Z,4.40
2023-01-26T00:36:12.778Z,4.40
2023-01-26T00:38:42.673Z,4.40
2023-01-26T00:41:31.177Z,4.40
2023-01-26T00:43:59.545Z,4.40
2023-01-26T00:46:27.901Z,4.40
2023-01-26T00:48:57.636Z,4.30
2023-01-26T00:51:25.764Z,4.40
2023-01-26T00:53:55.434Z,4.30
2023-01-26T00:56:23.730Z,4.30
2023-01-26T00:58:51.901Z,4.30
2023-01-26T01:01:22.395Z,4.30
2023-01-26T01:03:52.305Z,4.40
2023-01-26T01:06:20.587Z,4.40
2023-01-26T01:08:48.795Z,4.40
2023-01-26T01:11:18.335Z,4.40
2023-01-26T01:13:46.622Z,4.40
2023-01-26T01:16:16.620Z,4.30
2023-01-26T01:18:45.454Z,4.40
2023-01-26T01:21:14.424Z,4.30
2023-01-26T01:23:43.468Z,4.30
2023-01-26T01:26:12.249Z,4.30
2023-01-26T01:28:42.225Z,4.30
2023-01-26T01:31:15.660Z,4.30
2023-01-26T01:33:44.296Z,4.20
2023-01-26T01:36:13.516Z,4.20
2023-01-26T01:38:42.034Z,4.20
2023-01-26T01:41:12.163Z,4.20
2023-01-26T01:43:41.791Z,4.20
2023-01-26T01:46:14.572Z,4.20
2023-01-26T01:48:46.614Z,4.10
2023-01-26T01:51:16.370Z,4.10
2023-01-26T01:53:46.061Z,4.10
2023-01-26T01:56:19.211Z,4.10
2023-01-26T01:58:50.243Z,4.20
2023-01-26T02:01:18.494Z,4.10
2023-01-26T02:03:48.708Z,4.10
2023-01-26T02:06:21.596Z,4.10
2023-01-26T02:08:52.499Z,4.10
2023-01-26T02:11:22.230Z,4.10
2023-01-26T02:13:52.674Z,4.10
2023-01-26T02:16:20.907Z,4.10
2023-01-26T02:18:51.741Z,4.10
2023-01-26T02:21:21.112Z,4.10
2023-01-26T02:23:54.599Z,4.20
2023-01-26T02:26:24.909Z,4.20
2023-01-26T02:28:53.539Z,4.10
2023-01-26T02:31:23.428Z,4.10
2023-01-26T02:33:52.033Z,4.10
2023-01-26T02:36:23.261Z,4.10
2023-01-26T02:38:57.647Z,4.10
2023-01-26T02:41:47.351Z,4.20
2023-01-26T02:44:15.866Z,4.00
2023-01-26T02:46:44.377Z,4.10
2023-01-26T02:49:30.143Z,4.10
2023-01-26T02:51:58.326Z,4.10
2023-01-26T02:54:44.121Z,4.20
2023-01-26T02:57:13.727Z,4.10
2023-01-26T02:59:42.010Z,4.20
2023-01-26T03:02:10.604Z,4.20
2023-01-26T03:04:38.990Z,4.20
2023-01-26T03:07:07.067Z,4.20
2023-01-26T03:09:35.324Z,4.20
2023-01-26T03:12:03.681Z,4.20
2023-01-26T03:14:33.362Z,4.20
2023-01-26T03:17:01.551Z,4.20
2023-01-26T03:19:47.294Z,4.10
2023-01-26T03:22:33.046Z,4.20
2023-01-26T03:25:19.001Z,4.10
2023-01-26T03:27:48.144Z,4.10
2023-01-26T03:30:18.861Z,4.10
2023-01-26T03:32:47.008Z,4.10
2023-01-26T03:35:18.670Z,4.10
2023-01-26T03:37:46.866Z,4.10
2023-01-26T03:40:33.129Z,4.10
2023-01-26T03:43:25.314Z,4.10
2023-01-26T03:46:12.323Z,4.10
2023-01-26T03:48:57.982Z,4.10
2023-01-26T03:51:43.667Z,4.00
2023-01-26T03:54:29.440Z,4.00
2023-01-26T03:56:57.794Z,4.00
2023-01-26T03:59:38.383Z,4.00
2023-01-26T04:02:25.526Z,4.00
2023-01-26T04:05:11.240Z,4.00
2023-01-26T04:07:56.747Z,4.00
2023-01-26T04:10:25.241Z,4.00
2023-01-26T04:13:10.914Z,4.00
2023-01-26T04:15:57.050Z,3.90
2023-01-26T04:18:44.208Z,3.90
2023-01-26T04:21:33.495Z,3.90
2023-01-26T04:24:02.261Z,4.00
2023-01-26T04:26:36.986Z,3.90
2023-01-26T04:29:06.051Z,3.90
2023-01-26T04:31:34.275Z,4.00
2023-01-26T04:34:04.644Z,4.00
2023-01-26T04:36:32.791Z,3.90
2023-01-26T04:39:03.715Z,4.00
2023-01-26T04:41:32.410Z,4.00
2023-01-26T04:44:03.521Z,4.00
2023-01-26T04:46:33.293Z,3.70
2023-01-26T04:49:01.513Z,4.10
2023-01-26T04:51:31.195Z,4.10
2023-01-26T04:53:59.347Z,4.00
2023-01-26T04:56:28.823Z,4.00
2023-01-26T04:58:57.485Z,4.00
2023-01-26T05:01:25.810Z,4.00
2023-01-26T05:03:54.036Z,4.00
2023-01-26T05:06:22.328Z,4.00
2023-01-26T05:08:55.950Z,4.00
2023-01-26T05:11:24.260Z,3.80
2023-01-26T05:13:52.795Z,4.10
2023-01-26T05:16:21.318Z,4.20
2023-01-26T05:18:49.542Z,4.10
2023-01-26T05:21:17.746Z,4.00
2023-01-26T05:23:45.901Z,4.10
2023-01-26T05:26:15.425Z,4.10
2023-01-26T05:28:43.718Z,4.00
2023-01-26T05:31:13.005Z,4.00
2023-01-26T05:33:41.417Z,4.00
2023-01-26T05:36:09.791Z,4.00
2023-01-26T05:38:38.219Z,4.00
2023-01-26T05:41:08.225Z,4.00
2023-01-26T05:43:38.034Z,3.90
2023-01-26T05:46:06.573Z,3.90
2023-01-26T05:48:34.755Z,3.90
2023-01-26T05:51:04.037Z,3.90
2023-01-26T05:53:32.255Z,3.80
2023-01-26T05:56:00.369Z,3.80
2023-01-26T05:58:28.690Z,3.70
2023-01-26T06:00:58.490Z,3.80
2023-01-26T06:03:26.597Z,3.70
2023-01-26T06:05:55.380Z,3.70
2023-01-26T06:08:23.530Z,3.70
2023-01-26T06:10:51.838Z,3.70
2023-01-26T06:13:20.069Z,3.60
2023-01-26T06:15:48.333Z,3.60
2023-01-26T06:18:17.874Z,3.50
2023-01-26T06:20:46.154Z,3.50
2023-01-26T06:23:14.528Z,3.50
2023-01-26T06:25:42.675Z,3.40
2023-01-26T06:28:10.892Z,3.40
2023-01-26T06:30:39.154Z,3.30
2023-01-26T06:33:08.101Z,3.20
2023-01-26T06:35:37.633Z,3.30
2023-01-26T06:38:06.376Z,3.20
2023-01-26T06:40:34.545Z,3.20
2023-01-26T06:43:02.885Z,3.10
2023-01-26T06:45:30.998Z,3.10
2023-01-26T06:47:59.242Z,3.00
2023-01-26T06:50:28.222Z,3.00
2023-01-26T06:53:00.179Z,3.00
2023-01-26T06:55:33.975Z,3.00
2023-01-26T06:58:02.251Z,2.90
2023-01-26T07:00:31.122Z,2.90
2023-01-26T07:03:00.644Z,2.90
2023-01-26T07:05:28.771Z,2.80
2023-01-26T07:08:00.539Z,2.80
2023-01-26T07:10:28.763Z,2.80
2023-01-26T07:12:56.904Z,2.70
2023-01-26T07:15:25.193Z,2.70
2023-01-26T07:17:54.669Z,2.70
2023-01-26T07:20:25.566Z,2.70
2023-01-26T07:22:53.972Z,2.60
2023-01-26T07:25:23.614Z,2.60
2023-01-26T07:27:56.492Z,2.60
2023-01-26T07:30:25.078Z,2.50
2023-01-26T07:32:55.342Z,2.50
2023-01-26T07:35:23.522Z,2.40
2023-01-26T07:37:51.709Z,2.40
2023-01-26T07:40:19.941Z,2.40
2023-01-26T07:42:49.573Z,2.30
2023-01-26T07:45:18.641Z,2.40
2023-01-26T07:47:47.067Z,2.30
2023-01-26T07:50:15.496Z,2.30
2023-01-26T07:52:45.105Z,2.30
2023-01-26T07:55:13.442Z,2.30
2023-01-26T07:57:41.778Z,2.30
2023-01-26T08:00:12.813Z,2.20
2023-01-26T08:02:41.140Z,2.30
2023-01-26T08:05:09.821Z,2.20
2023-01-26T08:07:38.560Z,2.20
2023-01-26T08:10:07.453Z,2.20
2023-01-26T08:12:39.495Z,2.20
2023-01-26T08:15:09.513Z,2.30
2023-01-26T08:17:41.273Z,2.30
2023-01-26T08:20:10.562Z,2.20
2023-01-26T08:22:38.988Z,2.30
2023-01-26T08:25:07.681Z,2.30
2023-01-26T08:27:35.937Z,2.20
2023-01-26T08:30:04.062Z,2.20
2023-01-26T08:32:32.439Z,2.20
2023-01-26T08:35:04.633Z,2.20
2023-01-26T08:37:32.725Z,2.20
2023-01-26T08:40:00.952Z,2.20
2023-01-26T08:42:29.293Z,2.20
2023-01-26T08:44:57.526Z,2.20
2023-01-26T08:47:25.743Z,2.20
2023-01-26T08:49:53.878Z,2.10
2023-01-26T08:52:23.484Z,2.10
2023-01-26T08:54:51.670Z,2.20
2023-01-26T08:57:19.837Z,2.20
2023-01-26T08:59:48.257Z,2.20
2023-01-26T09:02:16.407Z,2.10
2023-01-26T09:04:44.765Z,2.10
2023-01-26T09:07:13.573Z,2.10
2023-01-26T09:09:43.175Z,2.10
2023-01-26T09:12:11.377Z,2.00
2023-01-26T09:14:39.647Z,2.00
2023-01-26T09:17:07.850Z,2.00
2023-01-26T09:19:36.447Z,1.90
2023-01-26T09:22:05.123Z,2.00
2023-01-26T09:24:33.227Z,1.90
2023-01-26T09:27:02.793Z,2.00
2023-01-26T09:29:30.922Z,2.00
2023-01-26T09:31:59.256Z,2.00
2023-01-26T09:34:28.811Z,2.10
2023-01-26T09:36:56.958Z,2.20
2023-01-26T09:39:25.294Z,2.30
2023-01-26T09:41:57.702Z,2.30
2023-01-26T09:44:30.659Z,2.40
2023-01-26T09:47:05.479Z,2.40
2023-01-26T09:49:44.109Z,2.40
2023-01-26T09:52:15.131Z,2.50
2023-01-26T09:54:45.038Z,2.50
2023-01-26T09:57:14.820Z,2.50
2023-01-26T09:59:48.446Z,2.50
2023-01-26T10:02:21.613Z,2.50
2023-01-26T10:04:52.518Z,2.30
2023-01-26T10:07:20.750Z,2.50
2023-01-26T10:09:50.035Z,2.50
2023-01-26T10:12:19.734Z,2.50
2023-01-26T10:14:52.681Z,2.50
2023-01-26T10:17:23.834Z,2.50
2023-01-26T10:19:53.977Z,2.10
2023-01-26T10:22:26.068Z,2.40
2023-01-26T10:24:57.785Z,2.40
2023-01-26T10:27:26.011Z,2.40
2023-01-26T10:29:55.704Z,2.40
2023-01-26T10:32:23.983Z,2.40
2023-01-26T10:34:55.913Z,2.50
2023-01-26T10:37:25.550Z,2.30
2023-01-26T10:40:00.851Z,2.50
2023-01-26T10:42:29.702Z,2.50
2023-01-26T10:45:02.143Z,2.50
2023-01-26T10:47:30.630Z,2.40
2023-01-26T10:50:13.524Z,2.40
2023-01-26T10:52:57.761Z,2.40
2023-01-26T10:55:28.793Z,2.40
2023-01-26T10:57:57.225Z,2.40
2023-01-26T11:00:29.096Z,2.40
2023-01-26T11:03:06.357Z,2.40
2023-01-26T11:05:34.859Z,2.40
2023-01-26T11:08:07.007Z,2.40
2023-01-26T11:10:36.047Z,2.40
2023-01-26T11:13:16.596Z,2.40
2023-01-26T11:15:48.028Z,2.30
2023-01-26T11:18:33.754Z,2.30
2023-01-26T11:21:04.500Z,2.40
2023-01-26T11:23:39.574Z,2.40
2023-01-26T11:26:21.803Z,2.30
2023-01-26T11:28:54.466Z,2.40
2023-01-26T11:31:33.069Z,2.40
2023-01-26T11:34:07.759Z,2.40
2023-01-26T11:36:39.926Z,2.40
2023-01-26T11:39:13.061Z,2.30
2023-01-26T11:41:44.784Z,2.30
2023-01-26T11:44:24.461Z,2.30
2023-01-26T11:47:08.617Z,2.30
2023-01-26T11:49:54.922Z,2.30
2023-01-26T11:52:31.958Z,2.30
2023-01-26T11:55:07.919Z,2.30
2023-01-26T11:57:38.621Z,2.20
2023-01-26T12:00:28.656Z,2.20
2023-01-26T12:03:01.198Z,2.20
2023-01-26T12:05:32.459Z,2.20
2023-01-26T12:08:02.706Z,2.20
2023-01-26T12:10:34.570Z,2.30
2023-01-26T12:13:07.009Z,2.30
2023-01-26T12:15:36.065Z,2.30
2023-01-26T12:18:08.981Z,2.30
2023-01-26T12:20:40.559Z,2.30
2023-01-26T12:23:13.486Z,2.20
2023-01-26T12:25:42.720Z,2.20
2023-01-26T12:28:16.327Z,2.20
2023-01-26T12:30:47.584Z,2.20
2023-01-26T12:33:16.272Z,2.20
2023-01-26T12:35:50.382Z,2.20
2023-01-26T12:38:20.904Z,2.20
2023-01-26T12:40:55.707Z,2.20
2023-01-26T12:43:28.426Z,2.20
2023-01-26T12:46:00.838Z,2.00
2023-01-26T12:48:37.316Z,2.20
2023-01-26T12:51:09.719Z,2.10
2023-01-26T12:53:40.945Z,2.10
2023-01-26T12:56:11.584Z,2.10
2023-01-26T12:58:41.853Z,2.10
2023-01-26T13:01:12.773Z,2.00
2023-01-26T13:03:42.356Z,2.10
2023-01-26T13:06:21.697Z,2.10
2023-01-26T13:09:00.732Z,2.10
2023-01-26T13:11:46.089Z,2.00
2023-01-26T13:14:31.794Z,2.10
2023-01-26T13:17:20.118Z,2.00
2023-01-26T13:19:57.499Z,1.90
2023-01-26T13:22:40.974Z,1.90
2023-01-26T13:25:17.654Z,1.90
2023-01-26T13:27:46.781Z,1.80
2023-01-26T13:30:44.957Z,1.80
2023-01-26T13:33:21.613Z,1.80
2023-01-26T13:35:51.457Z,1.80
2023-01-26T13:38:23.924Z,1.80
2023-01-26T13:40:52.206Z,1.70
2023-01-26T13:43:31.406Z,1.60
2023-01-26T13:46:07.357Z,1.70
2023-01-26T13:48:42.518Z,1.70
2023-01-26T13:51:12.644Z,1.60
2023-01-26T13:53:43.371Z,1.50
2023-01-26T13:56:21.823Z,1.60
2023-01-26T13:58:49.999Z,1.50
2023-01-26T14:01:18.558Z,1.50
2023-01-26T14:03:46.839Z,1.50
2023-01-26T14:06:17.121Z,1.60
2023-01-26T14:08:50.069Z,1.50
2023-01-26T14:11:20.221Z,1.40
2023-01-26T14:13:50.122Z,1.40
2023-01-26T14:16:24.075Z,1.40
2023-01-26T14:19:04.534Z,1.40
2023-01-26T14:21:33.810Z,1.40
2023-01-26T14:24:03.733Z,1.30
2023-01-26T14:26:32.664Z,1.30
2023-01-26T14:29:02.987Z,1.30
2023-01-26T14:31:32.389Z,1.30
2023-01-26T14:34:00.961Z,1.20
2023-01-26T14:36:30.053Z,1.30
2023-01-26T14:39:01.205Z,1.20
2023-01-26T14:41:31.929Z,1.20
2023-01-26T14:44:07.661Z,1.20
2023-01-26T14:46:37.941Z,1.20
2023-01-26T14:49:08.953Z,1.20
2023-01-26T14:51:37.455Z,1.20
2023-01-26T14:54:07.284Z,1.20
2023-01-26T14:56:38.204Z,1.10
2023-01-26T14:59:07.924Z,1.20
2023-01-26T15:01:38.076Z,1.10
2023-01-26T15:04:09.809Z,1.00
2023-01-26T15:06:38.032Z,1.10
2023-01-26T15:09:07.051Z,1.00
2023-01-26T15:11:55.471Z,1.00
2023-01-26T15:14:31.807Z,1.00
2023-01-26T15:17:00.202Z,1.00
2023-01-26T15:19:32.664Z,0.90
2023-01-26T15:22:01.071Z,1.00
2023-01-26T15:24:29.194Z,0.90
2023-01-26T15:27:10.047Z,0.90
2023-01-26T15:29:38.169Z,0.90
2023-01-26T15:32:06.653Z,0.90
2023-01-26T15:34:36.841Z,0.90
2023-01-26T15:37:12.955Z,0.80
2023-01-26T15:39:41.124Z,0.80
2023-01-26T15:42:14.476Z,0.80
2023-01-26T15:44:42.952Z,0.80
2023-01-26T15:47:12.947Z,0.80
2023-01-26T15:49:42.342Z,0.80
2023-01-26T15:52:11.383Z,0.80
2023-01-26T15:54:39.500Z,0.80
2023-01-26T15:57:07.895Z,0.80
2023-01-26T15:59:37.548Z,0.80
2023-01-26T16:02:06.121Z,0.80
2023-01-26T16:04:34.288Z,0.70
2023-01-26T16:07:04.618Z,0.80
2023-01-26T16:09:32.786Z,0.80
2023-01-26T16:12:00.967Z,0.80
2023-01-26T16:14:29.200Z,0.80
2023-01-26T16:16:58.817Z,0.80
2023-01-26T16:19:35.374Z,0.80
2023-01-26T16:22:04.101Z,0.80
2023-01-26T16:24:32.438Z,0.70
2023-01-26T16:27:00.540Z,0.70
2023-01-26T16:29:28.684Z,0.80
2023-01-26T16:31:58.529Z,0.80
2023-01-26T16:34:26.770Z,0.70
2023-01-26T16:36:55.947Z,0.70
2023-01-26T16:39:24.203Z,0.70
2023-01-26T16:41:52.403Z,0.70
2023-01-26T16:44:24.428Z,0.60
2023-01-26T16:46:52.739Z,0.40
2023-01-26T16:49:22.293Z,0.50
2023-01-26T16:51:50.427Z,0.70
2023-01-26T16:54:18.787Z,0.60
2023-01-26T16:56:47.994Z,0.50
2023-01-26T16:59:18.739Z,0.50
2023-01-26T17:01:47.176Z,0.40
2023-01-26T17:04:15.333Z,0.40
2023-01-26T17:06:44.954Z,0.50
2023-01-26T17:09:15.641Z,0.40
2023-01-26T17:11:43.832Z,0.50
2023-01-26T17:14:12.903Z,0.40
2023-01-26T17:16:41.173Z,0.50
2023-01-26T17:19:09.750Z,0.60
2023-01-26T17:21:37.950Z,0.70
2023-01-26T17:24:08.145Z,0.70
2023-01-26T17:26:36.383Z,0.70
2023-01-26T17:29:04.631Z,0.70
2023-01-26T17:31:32.840Z,0.70
2023-01-26T17:34:01.180Z,0.60
2023-01-26T17:36:29.593Z,0.60
2023-01-26T17:38:57.706Z,0.70
2023-01-26T17:41:28.225Z,0.70
2023-01-26T17:43:56.405Z,0.80
2023-01-26T17:46:24.586Z,0.70
2023-01-26T17:48:52.884Z,0.80
2023-01-26T17:51:21.945Z,0.70
2023-01-26T17:53:50.798Z,0.70
2023-01-26T17:56:20.240Z,0.70
2023-01-26T17:58:50.554Z,0.70
2023-01-26T18:01:19.243Z,0.60
2023-01-26T18:03:47.651Z,0.50
2023-01-26T18:06:15.934Z,0.70
2023-01-26T18:08:44.168Z,0.60
2023-01-26T18:11:13.062Z,0.40
2023-01-26T18:13:41.461Z,0.70
2023-01-26T18:16:12.314Z,0.50
2023-01-26T18:18:40.456Z,0.60
2023-01-26T18:21:12.050Z,0.50
2023-01-26T18:23:40.203Z,0.40
2023-01-26T18:26:08.726Z,0.40
2023-01-26T18:28:36.947Z,0.40
2023-01-26T18:31:13.903Z,0.40
2023-01-26T18:33:42.495Z,0.40
2023-01-26T18:36:12.329Z,0.50
2023-01-26T18:38:41.199Z,0.40
2023-01-26T18:41:11.341Z,0.30
2023-01-26T18:43:39.908Z,0.40
2023-01-26T18:46:08.111Z,0.30
2023-01-26T18:48:37.973Z,0.30
2023-01-26T18:51:06.498Z,0.30
2023-01-26T18:53:34.903Z,0.20
2023-01-26T18:56:05.006Z,0.20
2023-01-26T18:58:33.383Z,0.20
2023-01-26T19:01:04.374Z,0.20
2023-01-26T19:03:32.678Z,0.20
2023-01-26T19:06:04.008Z,0.30
2023-01-26T19:08:33.401Z,0.20
2023-01-26T19:11:05.662Z,0.30
2023-01-26T19:13:34.107Z,0.30
2023-01-26T19:16:02.659Z,0.30
2023-01-26T19:18:30.833Z,0.30
2023-01-26T19:20:59.324Z,0.40
2023-01-26T19:23:29.235Z,0.40
2023-01-26T19:25:57.569Z,0.50
2023-01-26T19:28:25.763Z,0.40
2023-01-26T19:30:54.127Z,0.50
2023-01-26T19:33:25.236Z,0.40
2023-01-26T19:35:53.487Z,0.40
2023-01-26T19:38:22.103Z,0.50
2023-01-26T19:40:55.763Z,0.50
2023-01-26T19:43:24.191Z,0.50
2023-01-26T19:45:54.054Z,0.40
2023-01-26T19:48:22.903Z,0.40
2023-01-26T19:51:04.265Z,0.40
2023-01-26T19:53:32.807Z,0.40
2023-01-26T19:56:06.044Z,0.30
2023-01-26T19:58:34.268Z,0.40
2023-01-26T20:01:03.461Z,0.30
2023-01-26T20:03:31.673Z,0.40
2023-01-26T20:06:00.188Z,0.40
2023-01-26T20:08:29.819Z,0.40
2023-01-26T20:11:04.927Z,0.40
2023-01-26T20:13:33.305Z,0.40
2023-01-26T20:16:01.870Z,0.40
2023-01-26T20:18:32.100Z,0.40
2023-01-26T20:21:01.112Z,0.50
2023-01-26T20:23:29.588Z,0.50
2023-01-26T20:26:01.998Z,0.50
2023-01-26T20:28:31.743Z,0.40
2023-01-26T20:31:05.383Z,0.40
2023-01-26T20:33:34.168Z,0.40
2023-01-26T20:36:02.682Z,0.20
2023-01-26T20:38:30.881Z,0.30
2023-01-26T20:40:59.218Z,0.30
2023-01-26T20:43:27.456Z,0.30
2023-01-26T20:45:57.059Z,0.30
2023-01-26T20:48:25.622Z,0.40
2023-01-26T20:50:53.947Z,0.40
2023-01-26T20:53:22.134Z,0.40
2023-01-26T20:55:50.289Z,0.40
2023-01-26T20:58:18.393Z,0.40
2023-01-26T21:00:46.671Z,0.40
2023-01-26T21:03:16.786Z,0.40
2023-01-26T21:05:45.592Z,0.50
2023-01-26T21:08:13.823Z,0.40
2023-01-26T21:10:41.979Z,0.50
2023-01-26T21:13:10.118Z,0.50
2023-01-26T21:15:38.428Z,0.40
2023-01-26T21:18:06.565Z,0.40
2023-01-26T21:20:36.307Z,0.40
2023-01-26T21:23:04.526Z,0.30
2023-01-26T21:25:32.776Z,0.30
2023-01-26T21:28:01.016Z,0.30
2023-01-26T21:30:29.743Z,0.20
2023-01-26T21:32:58.048Z,0.40
2023-01-26T21:35:26.180Z,0.40
2023-01-26T21:37:55.913Z,0.40
2023-01-26T21:40:24.221Z,0.40
2023-01-26T21:42:52.358Z,0.30
2023-01-26T21:45:38.364Z,0.40
2023-01-26T21:48:25.354Z,0.30
2023-01-26T21:51:13.056Z,0.30
2023-01-26T21:53:42.703Z,0.20
2023-01-26T21:56:10.851Z,0.30
2023-01-26T21:59:02.625Z,0.30
2023-01-26T22:01:31.494Z,0.40
2023-01-26T22:04:00.901Z,0.20
2023-01-26T22:06:29.674Z,0.20
2023-01-26T22:08:59.494Z,0.10
2023-01-26T22:11:28.139Z,0.10
2023-01-26T22:13:56.606Z,0.20
2023-01-26T22:16:25.055Z,0.10
2023-01-26T22:18:53.289Z,0.10
2023-01-26T22:21:21.498Z,0.20
2023-01-26T22:23:50.750Z,0.20
2023-01-26T22:26:20.914Z,0.20
2023-01-26T22:28:51.212Z,0.20
2023-01-26T22:31:20.029Z,0.10
2023-01-26T22:33:48.234Z,0.20
2023-01-26T22:36:17.072Z,0.20
2023-01-26T22:38:45.594Z,0.10
2023-01-26T22:41:15.120Z,0.10
2023-01-26T22:43:44.927Z,0.10
2023-01-26T22:46:16.868Z,0.10
2023-01-26T22:48:45.622Z,0.00
2023-01-26T22:51:16.760Z,0.10
2023-01-26T22:53:46.727Z,0.10
2023-01-26T22:56:14.921Z,0.10
2023-01-26T22:58:56.973Z,0.20
2023-01-26T23:01:27.036Z,0.10
2023-01-26T23:03:55.928Z,0.00
2023-01-26T23:06:24.419Z,0.00
2023-01-26T23:08:52.552Z,0.00
2023-01-26T23:11:21.980Z,-0.10
2023-01-26T23:13:52.185Z,0.00
2023-01-26T23:16:21.485Z,0.00
2023-01-26T23:18:49.822Z,0.00
2023-01-26T23:21:18.165Z,0.10
2023-01-26T23:23:46.369Z,0.10
2023-01-26T23:26:14.823Z,0.10
2023-01-26T23:28:43.619Z,0.00
2023-01-26T23:31:13.959Z,0.00
2023-01-26T23:33:42.259Z,0.00
2023-01-26T23:36:11.624Z,0.00
2023-01-26T23:38:40.373Z,0.00
2023-01-26T23:41:09.667Z,-0.10
2023-01-26T23:43:37.915Z,-0.10
2023-01-26T23:46:06.741Z,-0.10
2023-01-26T23:48:36.618Z,-0.10
2023-01-26T23:51:05.807Z,-0.10
2023-01-26T23:53:33.933Z,0.00
2023-01-26T23:56:04.370Z,-0.10
2023-01-26T23:58:32.490Z,-0.20
